PGN59V EDLW-EGLF
Flight info
| Callsign | PGN59V |
|---|---|
| Flight time | 1h 11m |
| Altitude | 40000 |
| Route | HMM1U HMM L602 FLEVO L980 IDRID M40 SABER L980 LAM DCT CPT |
| Aircraft | CL60/M-SBDE1E2E3FGHIJ4J5J7M3RWXYZ/LB1V1D1 |
Departure
| Time | 2026-05-04 15:14 |
|---|---|
| Airport | Dortmund Airport (EDLW) |
Arrival
| Time | 2026-05-04 16:25 |
|---|---|
| Airport | Farnborough Airport (EGLF) |
| Time | Latitude | Longitude | Altitude | Speed | Heading |
|---|---|---|---|---|---|
| 2026-05-04 14:37 | 51.51162 | 7.60324 | 446 ft | 0 kts | 105° |
| 2026-05-04 15:07 | 51.51162 | 7.60325 | 446 ft | 0 kts | 102° |
| 2026-05-04 15:07 | 51.51168 | 7.60335 | 446 ft | 3 kts | 12° |
| 2026-05-04 15:07 | 51.51176 | 7.60334 | 446 ft | 1 kts | 352° |
| 2026-05-04 15:08 | 51.51181 | 7.60333 | 445 ft | 2 kts | 351° |
| 2026-05-04 15:08 | 51.51187 | 7.60292 | 446 ft | 5 kts | 242° |
| 2026-05-04 15:08 | 51.51164 | 7.60237 | 448 ft | 6 kts | 237° |
| 2026-05-04 15:08 | 51.51158 | 7.60179 | 448 ft | 6 kts | 303° |
| 2026-05-04 15:09 | 51.51206 | 7.60197 | 447 ft | 12 kts | 60° |
| 2026-05-04 15:09 | 51.51261 | 7.60350 | 442 ft | 19 kts | 60° |
| 2026-05-04 15:09 | 51.51335 | 7.60560 | 436 ft | 19 kts | 60° |
| 2026-05-04 15:10 | 51.51462 | 7.60922 | 430 ft | 13 kts | 59° |
| 2026-05-04 15:10 | 51.51500 | 7.61027 | 428 ft | 7 kts | 62° |
| 2026-05-04 15:10 | 51.51611 | 7.61140 | 424 ft | 14 kts | 61° |
| 2026-05-04 15:11 | 51.51672 | 7.61312 | 422 ft | 20 kts | 60° |
| 2026-05-04 15:11 | 51.51743 | 7.61516 | 418 ft | 17 kts | 60° |
| 2026-05-04 15:11 | 51.51810 | 7.61705 | 416 ft | 21 kts | 61° |
| 2026-05-04 15:11 | 51.51891 | 7.61935 | 413 ft | 25 kts | 61° |
| 2026-05-04 15:12 | 51.51970 | 7.62159 | 411 ft | 21 kts | 62° |
| 2026-05-04 15:12 | 51.52033 | 7.62338 | 408 ft | 16 kts | 61° |
| 2026-05-04 15:12 | 51.52093 | 7.62397 | 407 ft | 12 kts | 335° |
| 2026-05-04 15:12 | 51.52169 | 7.62324 | 406 ft | 5 kts | 330° |
| 2026-05-04 15:13 | 51.52195 | 7.62267 | 406 ft | 5 kts | 269° |
| 2026-05-04 15:13 | 51.52171 | 7.62188 | 407 ft | 17 kts | 240° |
| 2026-05-04 15:13 | 51.51941 | 7.61536 | 415 ft | 118 kts | 241° |
| 2026-05-04 15:13 | 51.51433 | 7.60085 | 830 ft | 165 kts | 242° |
| 2026-05-04 15:14 | 51.50885 | 7.58466 | 1869 ft | 173 kts | 242° |
| 2026-05-04 15:14 | 51.50292 | 7.56746 | 2803 ft | 190 kts | 240° |
| 2026-05-04 15:14 | 51.49544 | 7.54945 | 3766 ft | 207 kts | 237° |
| 2026-05-04 15:14 | 51.48788 | 7.52855 | 4507 ft | 235 kts | 240° |
| 2026-05-04 15:15 | 51.47931 | 7.50401 | 4849 ft | 264 kts | 240° |
| 2026-05-04 15:15 | 51.47086 | 7.47797 | 4955 ft | 264 kts | 251° |
| 2026-05-04 15:15 | 51.46979 | 7.44887 | 4983 ft | 266 kts | 284° |
| 2026-05-04 15:16 | 51.49570 | 7.40917 | 5001 ft | 270 kts | 335° |
| 2026-05-04 15:16 | 51.51283 | 7.39685 | 5235 ft | 269 kts | 335° |
| 2026-05-04 15:16 | 51.54932 | 7.38329 | 6022 ft | 278 kts | 6° |
| 2026-05-04 15:17 | 51.56782 | 7.39203 | 6602 ft | 281 kts | 27° |
| 2026-05-04 15:17 | 51.59874 | 7.43156 | 7909 ft | 288 kts | 41° |
| 2026-05-04 15:17 | 51.61370 | 7.45255 | 8777 ft | 289 kts | 41° |
| 2026-05-04 15:18 | 51.62886 | 7.47382 | 9695 ft | 296 kts | 41° |
| 2026-05-04 15:18 | 51.64455 | 7.49584 | 10787 ft | 310 kts | 41° |
| 2026-05-04 15:18 | 51.66106 | 7.51902 | 11816 ft | 325 kts | 41° |
| 2026-05-04 15:19 | 51.69559 | 7.56760 | 14086 ft | 339 kts | 40° |
| 2026-05-04 15:19 | 51.71401 | 7.59094 | 15119 ft | 346 kts | 30° |
| 2026-05-04 15:19 | 51.75767 | 7.62727 | 17113 ft | 361 kts | 26° |
| 2026-05-04 15:20 | 51.78012 | 7.64561 | 18060 ft | 367 kts | 25° |
| 2026-05-04 15:20 | 51.80419 | 7.65906 | 18975 ft | 370 kts | 9° |
| 2026-05-04 15:20 | 51.82980 | 7.66059 | 19809 ft | 373 kts | 350° |
| 2026-05-04 15:20 | 51.85451 | 7.64922 | 20653 ft | 372 kts | 332° |
| 2026-05-04 15:21 | 51.87574 | 7.62586 | 21452 ft | 371 kts | 312° |
| 2026-05-04 15:21 | 51.89108 | 7.59308 | 22253 ft | 368 kts | 295° |
| 2026-05-04 15:21 | 51.91341 | 7.51810 | 23839 ft | 376 kts | 292° |
| 2026-05-04 15:22 | 51.92469 | 7.47987 | 24676 ft | 379 kts | 292° |
| 2026-05-04 15:22 | 51.93602 | 7.44141 | 25481 ft | 382 kts | 291° |
| 2026-05-04 15:22 | 51.95906 | 7.36304 | 26945 ft | 390 kts | 291° |
| 2026-05-04 15:23 | 51.97076 | 7.32314 | 27647 ft | 393 kts | 290° |
| 2026-05-04 15:23 | 51.98256 | 7.28287 | 28329 ft | 398 kts | 290° |
| 2026-05-04 15:23 | 51.99460 | 7.24170 | 29045 ft | 401 kts | 290° |
| 2026-05-04 15:23 | 52.00658 | 7.20067 | 29700 ft | 405 kts | 290° |
| 2026-05-04 15:24 | 52.03098 | 7.11690 | 30903 ft | 412 kts | 290° |
| 2026-05-04 15:24 | 52.05586 | 7.03120 | 31990 ft | 418 kts | 289° |
| 2026-05-04 15:25 | 52.06837 | 6.98804 | 32522 ft | 420 kts | 290° |
| 2026-05-04 15:25 | 52.08084 | 6.94467 | 32983 ft | 422 kts | 289° |
| 2026-05-04 15:25 | 52.09319 | 6.90135 | 33448 ft | 424 kts | 289° |
| 2026-05-04 15:26 | 52.11807 | 6.81404 | 34575 ft | 419 kts | 289° |
| 2026-05-04 15:26 | 52.13068 | 6.77125 | 35063 ft | 416 kts | 289° |
| 2026-05-04 15:26 | 52.15120 | 6.68421 | 35706 ft | 411 kts | 284° |
| 2026-05-04 15:27 | 52.16088 | 6.64029 | 35950 ft | 413 kts | 284° |
| 2026-05-04 15:27 | 52.18025 | 6.55239 | 36474 ft | 415 kts | 285° |
| 2026-05-04 15:28 | 52.19976 | 6.46357 | 37019 ft | 416 kts | 285° |
| 2026-05-04 15:28 | 52.20956 | 6.41887 | 37317 ft | 417 kts | 285° |
| 2026-05-04 15:28 | 52.22901 | 6.32991 | 37915 ft | 417 kts | 285° |
| 2026-05-04 15:29 | 52.23874 | 6.28527 | 38221 ft | 417 kts | 285° |
| 2026-05-04 15:30 | 52.27757 | 6.10622 | 39173 ft | 420 kts | 286° |
| 2026-05-04 15:30 | 52.30673 | 5.97082 | 39770 ft | 422 kts | 286° |
| 2026-05-04 15:31 | 52.32618 | 5.87998 | 39930 ft | 428 kts | 287° |
| 2026-05-04 15:31 | 52.33598 | 5.83393 | 39917 ft | 433 kts | 287° |
| 2026-05-04 15:32 | 52.37915 | 5.59577 | 39958 ft | 437 kts | 272° |
| 2026-05-04 15:33 | 52.37510 | 5.49754 | 39952 ft | 433 kts | 259° |
| 2026-05-04 15:34 | 52.36050 | 5.35137 | 39954 ft | 433 kts | 260° |
| 2026-05-04 15:34 | 52.34573 | 5.20428 | 39957 ft | 434 kts | 259° |
| 2026-05-04 15:35 | 52.32841 | 5.05829 | 39956 ft | 432 kts | 250° |
| 2026-05-04 15:36 | 52.29925 | 4.91832 | 39963 ft | 433 kts | 250° |
| 2026-05-04 15:36 | 52.27987 | 4.82459 | 39952 ft | 434 kts | 250° |
| 2026-05-04 15:37 | 52.26038 | 4.73101 | 39967 ft | 435 kts | 250° |
| 2026-05-04 15:37 | 52.24095 | 4.63755 | 39947 ft | 436 kts | 250° |
| 2026-05-04 15:38 | 52.22135 | 4.54393 | 39963 ft | 435 kts | 250° |
| 2026-05-04 15:38 | 52.20170 | 4.45060 | 39961 ft | 435 kts | 250° |
| 2026-05-04 15:39 | 52.18192 | 4.35684 | 39957 ft | 435 kts | 250° |
| 2026-05-04 15:40 | 52.15227 | 4.21724 | 39967 ft | 436 kts | 250° |
| 2026-05-04 15:40 | 52.13241 | 4.12426 | 39955 ft | 437 kts | 250° |
| 2026-05-04 15:41 | 52.11247 | 4.03112 | 39961 ft | 437 kts | 250° |
| 2026-05-04 15:41 | 52.09236 | 3.93770 | 39950 ft | 438 kts | 249° |
| 2026-05-04 15:42 | 52.07215 | 3.84437 | 39966 ft | 438 kts | 249° |
| 2026-05-04 15:42 | 52.05192 | 3.75127 | 39955 ft | 437 kts | 249° |
| 2026-05-04 15:43 | 52.03167 | 3.65843 | 39977 ft | 437 kts | 250° |
| 2026-05-04 15:43 | 52.01129 | 3.56548 | 39970 ft | 438 kts | 249° |
| 2026-05-04 15:44 | 51.99315 | 3.47108 | 39985 ft | 441 kts | 258° |
| 2026-05-04 15:44 | 51.98426 | 3.37230 | 39974 ft | 443 kts | 260° |
| 2026-05-04 15:45 | 51.97483 | 3.27380 | 39976 ft | 443 kts | 259° |
| 2026-05-04 15:45 | 51.96560 | 3.17518 | 39991 ft | 443 kts | 260° |
| 2026-05-04 15:46 | 51.95912 | 3.07592 | 39978 ft | 444 kts | 263° |
| 2026-05-04 15:46 | 51.95266 | 2.97685 | 39970 ft | 443 kts | 262° |
| 2026-05-04 15:47 | 51.94616 | 2.87765 | 39984 ft | 444 kts | 262° |
| 2026-05-04 15:47 | 51.93957 | 2.77780 | 39972 ft | 446 kts | 262° |
| 2026-05-04 15:48 | 51.93281 | 2.67826 | 39974 ft | 446 kts | 262° |
| 2026-05-04 15:48 | 51.92257 | 2.52831 | 39990 ft | 446 kts | 262° |
| 2026-05-04 15:49 | 51.91561 | 2.42819 | 39974 ft | 447 kts | 262° |
| 2026-05-04 15:49 | 51.90877 | 2.33122 | 39991 ft | 447 kts | 262° |
| 2026-05-04 15:50 | 51.90590 | 2.22908 | 39964 ft | 449 kts | 266° |
| 2026-05-04 15:50 | 51.90351 | 2.12793 | 39990 ft | 449 kts | 266° |
| 2026-05-04 15:51 | 51.90111 | 2.02684 | 39986 ft | 449 kts | 266° |
| 2026-05-04 15:51 | 51.89856 | 1.92559 | 39987 ft | 449 kts | 265° |
| 2026-05-04 15:52 | 51.88634 | 1.82727 | 39993 ft | 447 kts | 250° |
| 2026-05-04 15:52 | 51.86810 | 1.73982 | 39981 ft | 448 kts | 251° |
| 2026-05-04 15:53 | 51.84876 | 1.64430 | 39984 ft | 448 kts | 251° |
| 2026-05-04 15:53 | 51.82909 | 1.54884 | 39986 ft | 449 kts | 251° |
| 2026-05-04 15:54 | 51.80929 | 1.45286 | 39983 ft | 449 kts | 251° |
| 2026-05-04 15:54 | 51.78941 | 1.35693 | 39989 ft | 450 kts | 251° |
| 2026-05-04 15:55 | 51.76942 | 1.26094 | 39987 ft | 450 kts | 250° |
| 2026-05-04 15:55 | 51.74921 | 1.16434 | 39982 ft | 451 kts | 250° |
| 2026-05-04 15:56 | 51.72934 | 1.06981 | 39383 ft | 444 kts | 250° |
| 2026-05-04 15:56 | 51.71947 | 1.02298 | 38831 ft | 441 kts | 250° |
| 2026-05-04 15:56 | 51.70968 | 0.97623 | 38243 ft | 440 kts | 251° |
| 2026-05-04 15:57 | 51.70260 | 0.92842 | 37672 ft | 439 kts | 259° |
| 2026-05-04 15:57 | 51.69891 | 0.87916 | 37071 ft | 438 kts | 262° |
| 2026-05-04 15:57 | 51.69558 | 0.83070 | 36501 ft | 435 kts | 262° |
| 2026-05-04 15:57 | 51.69221 | 0.78250 | 36003 ft | 435 kts | 261° |
| 2026-05-04 15:58 | 51.68878 | 0.73391 | 35356 ft | 441 kts | 261° |
| 2026-05-04 15:58 | 51.68530 | 0.68490 | 34666 ft | 443 kts | 261° |
| 2026-05-04 15:58 | 51.68183 | 0.63609 | 34156 ft | 435 kts | 261° |
| 2026-05-04 15:58 | 51.67840 | 0.58804 | 33566 ft | 430 kts | 261° |
| 2026-05-04 15:59 | 51.67498 | 0.54061 | 33029 ft | 424 kts | 261° |
| 2026-05-04 15:59 | 51.67159 | 0.49372 | 32462 ft | 418 kts | 261° |
| 2026-05-04 15:59 | 51.66822 | 0.44761 | 31922 ft | 413 kts | 261° |
| 2026-05-04 15:59 | 51.66489 | 0.40207 | 31367 ft | 408 kts | 261° |
| 2026-05-04 16:00 | 51.66157 | 0.35714 | 30826 ft | 402 kts | 261° |
| 2026-05-04 16:00 | 51.65833 | 0.31340 | 30290 ft | 396 kts | 261° |
| 2026-05-04 16:00 | 51.65506 | 0.26958 | 29775 ft | 390 kts | 260° |
| 2026-05-04 16:00 | 51.65184 | 0.22662 | 29270 ft | 384 kts | 261° |
| 2026-05-04 16:01 | 51.64864 | 0.18417 | 28760 ft | 379 kts | 261° |
| 2026-05-04 16:01 | 51.64505 | 0.14248 | 28264 ft | 373 kts | 258° |
| 2026-05-04 16:01 | 51.64074 | 0.10175 | 27749 ft | 368 kts | 258° |
| 2026-05-04 16:01 | 51.63643 | 0.06140 | 27244 ft | 364 kts | 258° |
| 2026-05-04 16:02 | 51.63218 | 0.02165 | 26761 ft | 359 kts | 258° |
| 2026-05-04 16:02 | 51.62800 | -0.01727 | 26299 ft | 354 kts | 258° |
| 2026-05-04 16:02 | 51.61970 | -0.09417 | 25377 ft | 345 kts | 258° |
| 2026-05-04 16:03 | 51.61560 | -0.13193 | 24923 ft | 340 kts | 258° |
| 2026-05-04 16:03 | 51.61155 | -0.16911 | 24477 ft | 336 kts | 258° |
| 2026-05-04 16:03 | 51.60753 | -0.20585 | 24032 ft | 332 kts | 258° |
| 2026-05-04 16:03 | 51.60353 | -0.24225 | 23597 ft | 331 kts | 258° |
| 2026-05-04 16:04 | 51.59951 | -0.27877 | 23153 ft | 331 kts | 258° |
| 2026-05-04 16:04 | 51.59146 | -0.35157 | 22278 ft | 330 kts | 258° |
| 2026-05-04 16:04 | 51.58743 | -0.38783 | 21842 ft | 330 kts | 258° |
| 2026-05-04 16:05 | 51.58340 | -0.42406 | 21407 ft | 329 kts | 258° |
| 2026-05-04 16:05 | 51.57937 | -0.46016 | 20974 ft | 329 kts | 258° |
| 2026-05-04 16:05 | 51.57129 | -0.53208 | 20105 ft | 327 kts | 259° |
| 2026-05-04 16:06 | 51.56727 | -0.56781 | 19675 ft | 326 kts | 259° |
| 2026-05-04 16:06 | 51.53829 | -0.64754 | 18290 ft | 318 kts | 225° |
| 2026-05-04 16:07 | 51.51744 | -0.68195 | 17495 ft | 319 kts | 225° |
| 2026-05-04 16:07 | 51.47222 | -0.75661 | 16244 ft | 292 kts | 225° |
| 2026-05-04 16:08 | 51.45839 | -0.77940 | 15986 ft | 280 kts | 225° |
| 2026-05-04 16:08 | 51.41860 | -0.84483 | 14701 ft | 268 kts | 225° |
| 2026-05-04 16:09 | 51.39263 | -0.88745 | 13987 ft | 264 kts | 225° |
| 2026-05-04 16:09 | 51.36726 | -0.92901 | 13490 ft | 258 kts | 225° |
| 2026-05-04 16:10 | 51.34176 | -0.96901 | 13046 ft | 253 kts | 214° |
| 2026-05-04 16:11 | 51.29312 | -0.97079 | 12052 ft | 246 kts | 146° |
| 2026-05-04 16:11 | 51.28116 | -0.95138 | 11589 ft | 247 kts | 126° |
| 2026-05-04 16:12 | 51.25217 | -0.88397 | 10290 ft | 243 kts | 125° |
| 2026-05-04 16:12 | 51.23043 | -0.81253 | 8972 ft | 241 kts | 104° |
| 2026-05-04 16:13 | 51.22187 | -0.76126 | 8121 ft | 237 kts | 105° |
| 2026-05-04 16:13 | 51.21343 | -0.71114 | 7279 ft | 233 kts | 104° |
| 2026-05-04 16:14 | 51.21547 | -0.66188 | 6553 ft | 220 kts | 59° |
| 2026-05-04 16:14 | 51.23154 | -0.62335 | 5994 ft | 210 kts | 56° |
| 2026-05-04 16:15 | 51.26713 | -0.59049 | 4651 ft | 220 kts | 347° |
| 2026-05-04 16:16 | 51.29133 | -0.61881 | 3975 ft | 223 kts | 301° |
| 2026-05-04 16:16 | 51.29513 | -0.69248 | 2964 ft | 226 kts | 269° |
| 2026-05-04 16:17 | 51.29365 | -0.74115 | 2840 ft | 217 kts | 269° |
| 2026-05-04 16:18 | 51.29144 | -0.81292 | 2797 ft | 215 kts | 269° |
| 2026-05-04 16:18 | 51.29070 | -0.83671 | 2784 ft | 214 kts | 269° |
| 2026-05-04 16:19 | 51.28844 | -0.90817 | 2748 ft | 213 kts | 269° |
| 2026-05-04 16:19 | 51.28689 | -0.95364 | 2731 ft | 201 kts | 266° |
| 2026-05-04 16:20 | 51.25868 | -0.99157 | 2486 ft | 194 kts | 172° |
| 2026-05-04 16:20 | 51.23242 | -0.98160 | 2486 ft | 193 kts | 159° |
| 2026-05-04 16:21 | 51.22034 | -0.93396 | 2354 ft | 175 kts | 55° |
| 2026-05-04 16:22 | 51.23324 | -0.90351 | 2193 ft | 151 kts | 58° |
| 2026-05-04 16:22 | 51.24651 | -0.86306 | 1611 ft | 125 kts | 60° |
| 2026-05-04 16:23 | 51.25834 | -0.82851 | 914 ft | 112 kts | 59° |
| 2026-05-04 16:24 | 51.27339 | -0.78345 | 267 ft | 107 kts | 59° |
| 2026-05-04 16:25 | 51.27678 | -0.77395 | 241 ft | 6 kts | 343° |
| 2026-05-04 16:26 | 51.28049 | -0.77510 | 241 ft | 13 kts | 353° |
| 2026-05-04 16:26 | 51.28226 | -0.77597 | 241 ft | 5 kts | 266° |
| 2026-05-04 16:27 | 51.28148 | -0.77744 | 241 ft | 14 kts | 214° |
| 2026-05-04 16:28 | 51.27932 | -0.77827 | 241 ft | 6 kts | 135° |
| 2026-05-04 16:28 | 51.27915 | -0.77839 | 241 ft | 0 kts | 307° |